sensor_id;sensor_type;location;lat;lon;timestamp;temperature;humidity
9980;DHT22;5030;51.532;6.766;2023-01-25T00:01:50;1.50;99.90
9980;DHT22;5030;51.532;6.766;2023-01-25T00:04:17;1.40;99.90
9980;DHT22;5030;51.532;6.766;2023-01-25T00:06:43;1.20;99.90
9980;DHT22;5030;51.532;6.766;2023-01-25T00:09:10;1.10;99.90
9980;DHT22;5030;51.532;6.766;2023-01-25T00:11:36;1.10;99.90
9980;DHT22;5030;51.532;6.766;2023-01-25T00:14:02;1.10;99.90
9980;DHT22;5030;51.532;6.766;2023-01-25T00:16:28;1.00;99.90
9980;DHT22;5030;51.532;6.766;2023-01-25T00:18:54;1.00;99.90
9980;DHT22;5030;51.532;6.766;2023-01-25T00:21:22;1.00;99.90
9980;DHT22;5030;51.532;6.766;2023-01-25T00:23:49;0.90;99.90
9980;DHT22;5030;51.532;6.766;2023-01-25T00:26:16;1.00;99.90
9980;DHT22;5030;51.532;6.766;2023-01-25T00:28:41;0.90;99.90
9980;DHT22;5030;51.532;6.766;2023-01-25T00:31:10;0.90;99.90
9980;DHT22;5030;51.532;6.766;2023-01-25T00:33:50;1.00;99.90
9980;DHT22;5030;51.532;6.766;2023-01-25T00:39:01;0.90;99.90
9980;DHT22;5030;51.532;6.766;2023-01-25T00:41:26;1.00;99.90
9980;DHT22;5030;51.532;6.766;2023-01-25T00:43:52;1.00;99.90
9980;DHT22;5030;51.532;6.766;2023-01-25T00:46:18;0.90;99.90
9980;DHT22;5030;51.532;6.766;2023-01-25T00:48:44;1.00;99.90
9980;DHT22;5030;51.532;6.766;2023-01-25T00:51:10;1.00;99.90
9980;DHT22;5030;51.532;6.766;2023-01-25T00:53:36;1.20;99.90
9980;DHT22;5030;51.532;6.766;2023-01-25T00:56:02;1.30;99.90
9980;DHT22;5030;51.532;6.766;2023-01-25T00:58:28;1.20;99.90
9980;DHT22;5030;51.532;6.766;2023-01-25T01:00:54;1.20;99.90
9980;DHT22;5030;51.532;6.766;2023-01-25T01:03:21;1.30;99.90
9980;DHT22;5030;51.532;6.766;2023-01-25T01:05:47;1.20;99.90
9980;DHT22;5030;51.532;6.766;2023-01-25T01:08:13;1.30;99.90
9980;DHT22;5030;51.532;6.766;2023-01-25T01:10:40;1.20;99.90
9980;DHT22;5030;51.532;6.766;2023-01-25T01:13:06;1.10;99.90
9980;DHT22;5030;51.532;6.766;2023-01-25T01:15:35;1.00;99.90
9980;DHT22;5030;51.532;6.766;2023-01-25T01:18:01;0.80;99.90
9980;DHT22;5030;51.532;6.766;2023-01-25T01:20:28;0.80;99.90
9980;DHT22;5030;51.532;6.766;2023-01-25T01:22:53;0.80;99.90
9980;DHT22;5030;51.532;6.766;2023-01-25T01:25:20;0.80;99.90
9980;DHT22;5030;51.532;6.766;2023-01-25T01:27:46;1.00;99.90
9980;DHT22;5030;51.532;6.766;2023-01-25T01:30:11;0.90;99.90
9980;DHT22;5030;51.532;6.766;2023-01-25T01:32:37;1.00;99.90
9980;DHT22;5030;51.532;6.766;2023-01-25T01:35:03;0.90;99.90
9980;DHT22;5030;51.532;6.766;2023-01-25T01:37:29;0.80;99.90
9980;DHT22;5030;51.532;6.766;2023-01-25T01:39:54;0.70;99.90
9980;DHT22;5030;51.532;6.766;2023-01-25T01:42:20;0.70;99.90
9980;DHT22;5030;51.532;6.766;2023-01-25T01:44:47;0.80;99.90
9980;DHT22;5030;51.532;6.766;2023-01-25T01:47:25;1.00;99.90
9980;DHT22;5030;51.532;6.766;2023-01-25T01:49:58;1.10;99.90
9980;DHT22;5030;51.532;6.766;2023-01-25T01:52:31;1.00;99.90
9980;DHT22;5030;51.532;6.766;2023-01-25T01:55:02;1.00;99.90
9980;DHT22;5030;51.532;6.766;2023-01-25T01:57:43;1.00;99.90
9980;DHT22;5030;51.532;6.766;2023-01-25T02:00:24;1.10;99.90
9980;DHT22;5030;51.532;6.766;2023-01-25T02:02:51;1.20;99.90
9980;DHT22;5030;51.532;6.766;2023-01-25T02:06:04;1.20;99.90
9980;DHT22;5030;51.532;6.766;2023-01-25T02:08:33;1.20;99.90
9980;DHT22;5030;51.532;6.766;2023-01-25T02:11:03;1.20;99.90
9980;DHT22;5030;51.532;6.766;2023-01-25T02:13:30;1.10;99.90
9980;DHT22;5030;51.532;6.766;2023-01-25T02:15:57;1.00;99.90
9980;DHT22;5030;51.532;6.766;2023-01-25T02:18:23;1.00;99.90
9980;DHT22;5030;51.532;6.766;2023-01-25T02:20:51;1.00;99.90
9980;DHT22;5030;51.532;6.766;2023-01-25T02:26:08;1.20;99.90
9980;DHT22;5030;51.532;6.766;2023-01-25T02:31:03;1.30;99.90
9980;DHT22;5030;51.532;6.766;2023-01-25T02:33:29;1.20;99.90
9980;DHT22;5030;51.532;6.766;2023-01-25T02:36:20;1.10;99.90
9980;DHT22;5030;51.532;6.766;2023-01-25T02:38:52;1.10;99.90
9980;DHT22;5030;51.532;6.766;2023-01-25T02:41:44;1.20;99.90
9980;DHT22;5030;51.532;6.766;2023-01-25T02:44:19;1.10;99.90
9980;DHT22;5030;51.532;6.766;2023-01-25T02:46:45;1.20;99.90
9980;DHT22;5030;51.532;6.766;2023-01-25T02:49:12;1.00;99.90
9980;DHT22;5030;51.532;6.766;2023-01-25T02:51:40;1.00;99.90
9980;DHT22;5030;51.532;6.766;2023-01-25T02:54:07;0.90;99.90
9980;DHT22;5030;51.532;6.766;2023-01-25T02:59:13;0.80;99.90
9980;DHT22;5030;51.532;6.766;2023-01-25T03:01:42;0.70;99.90
9980;DHT22;5030;51.532;6.766;2023-01-25T03:06:36;0.80;99.90
9980;DHT22;5030;51.532;6.766;2023-01-25T03:09:04;0.90;99.90
9980;DHT22;5030;51.532;6.766;2023-01-25T03:11:30;1.00;99.90
9980;DHT22;5030;51.532;6.766;2023-01-25T03:13:56;1.10;99.90
9980;DHT22;5030;51.532;6.766;2023-01-25T03:16:22;0.90;99.90
9980;DHT22;5030;51.532;6.766;2023-01-25T03:18:47;0.70;99.90
9980;DHT22;5030;51.532;6.766;2023-01-25T03:21:16;0.60;99.90
9980;DHT22;5030;51.532;6.766;2023-01-25T03:23:43;0.70;99.90
9980;DHT22;5030;51.532;6.766;2023-01-25T03:26:15;0.70;99.90
9980;DHT22;5030;51.532;6.766;2023-01-25T03:28:42;0.60;99.90
9980;DHT22;5030;51.532;6.766;2023-01-25T03:31:10;0.60;99.90
9980;DHT22;5030;51.532;6.766;2023-01-25T03:33:36;0.60;99.90
9980;DHT22;5030;51.532;6.766;2023-01-25T03:36:03;0.60;99.90
9980;DHT22;5030;51.532;6.766;2023-01-25T03:38:29;0.60;99.90
9980;DHT22;5030;51.532;6.766;2023-01-25T03:40:55;0.60;99.90
9980;DHT22;5030;51.532;6.766;2023-01-25T03:43:23;0.60;99.90
9980;DHT22;5030;51.532;6.766;2023-01-25T03:45:56;0.50;99.90
9980;DHT22;5030;51.532;6.766;2023-01-25T03:48:23;0.50;99.90
9980;DHT22;5030;51.532;6.766;2023-01-25T03:50:54;0.50;99.90
9980;DHT22;5030;51.532;6.766;2023-01-25T03:53:20;0.50;99.90
9980;DHT22;5030;51.532;6.766;2023-01-25T03:56:01;0.40;99.90
9980;DHT22;5030;51.532;6.766;2023-01-25T03:58:28;0.50;99.90
9980;DHT22;5030;51.532;6.766;2023-01-25T04:00:56;0.50;99.90
9980;DHT22;5030;51.532;6.766;2023-01-25T04:03:22;0.50;99.90
9980;DHT22;5030;51.532;6.766;2023-01-25T04:05:49;0.60;99.90
9980;DHT22;5030;51.532;6.766;2023-01-25T04:08:15;0.50;99.90
9980;DHT22;5030;51.532;6.766;2023-01-25T04:10:43;0.70;99.90
9980;DHT22;5030;51.532;6.766;2023-01-25T04:13:08;0.80;99.90
9980;DHT22;5030;51.532;6.766;2023-01-25T04:15:35;0.90;99.90
9980;DHT22;5030;51.532;6.766;2023-01-25T04:18:00;1.00;99.90
9980;DHT22;5030;51.532;6.766;2023-01-25T04:20:26;1.00;99.90
9980;DHT22;5030;51.532;6.766;2023-01-25T04:22:52;0.90;99.90
9980;DHT22;5030;51.532;6.766;2023-01-25T04:25:17;0.90;99.90
9980;DHT22;5030;51.532;6.766;2023-01-25T04:27:43;0.80;99.90
9980;DHT22;5030;51.532;6.766;2023-01-25T04:30:09;0.90;99.90
9980;DHT22;5030;51.532;6.766;2023-01-25T04:32:35;0.90;99.90
9980;DHT22;5030;51.532;6.766;2023-01-25T04:35:01;0.90;99.90
9980;DHT22;5030;51.532;6.766;2023-01-25T04:37:27;0.80;99.90
9980;DHT22;5030;51.532;6.766;2023-01-25T04:39:53;0.70;99.90
9980;DHT22;5030;51.532;6.766;2023-01-25T04:42:18;0.80;99.90
9980;DHT22;5030;51.532;6.766;2023-01-25T04:44:44;0.80;99.90
9980;DHT22;5030;51.532;6.766;2023-01-25T04:47:09;0.60;99.90
9980;DHT22;5030;51.532;6.766;2023-01-25T04:49:35;0.60;99.90
9980;DHT22;5030;51.532;6.766;2023-01-25T04:52:01;0.70;99.90
9980;DHT22;5030;51.532;6.766;2023-01-25T04:54:26;0.70;99.90
9980;DHT22;5030;51.532;6.766;2023-01-25T04:56:52;0.70;99.90
9980;DHT22;5030;51.532;6.766;2023-01-25T04:59:17;0.60;99.90
9980;DHT22;5030;51.532;6.766;2023-01-25T05:01:43;0.60;99.90
9980;DHT22;5030;51.532;6.766;2023-01-25T05:04:09;0.60;99.90
9980;DHT22;5030;51.532;6.766;2023-01-25T05:06:34;0.50;99.90
9980;DHT22;5030;51.532;6.766;2023-01-25T05:09:00;0.60;99.90
9980;DHT22;5030;51.532;6.766;2023-01-25T05:11:25;0.60;99.90
9980;DHT22;5030;51.532;6.766;2023-01-25T05:13:51;0.70;99.90
9980;DHT22;5030;51.532;6.766;2023-01-25T05:16:19;0.60;99.90
9980;DHT22;5030;51.532;6.766;2023-01-25T05:18:44;0.40;99.90
9980;DHT22;5030;51.532;6.766;2023-01-25T05:21:10;0.40;99.90
9980;DHT22;5030;51.532;6.766;2023-01-25T05:23:56;0.50;99.90
9980;DHT22;5030;51.532;6.766;2023-01-25T05:26:22;0.60;99.90
9980;DHT22;5030;51.532;6.766;2023-01-25T05:29:07;0.50;99.90
9980;DHT22;5030;51.532;6.766;2023-01-25T05:31:33;0.60;99.90
9980;DHT22;5030;51.532;6.766;2023-01-25T05:33:58;0.60;99.90
9980;DHT22;5030;51.532;6.766;2023-01-25T05:36:24;0.50;99.90
9980;DHT22;5030;51.532;6.766;2023-01-25T05:38:49;0.50;99.90
9980;DHT22;5030;51.532;6.766;2023-01-25T05:41:17;0.50;99.90
9980;DHT22;5030;51.532;6.766;2023-01-25T05:43:42;0.50;99.90
9980;DHT22;5030;51.532;6.766;2023-01-25T05:46:08;0.40;99.90
9980;DHT22;5030;51.532;6.766;2023-01-25T05:48:34;0.50;99.90
9980;DHT22;5030;51.532;6.766;2023-01-25T05:50:59;0.50;99.90
9980;DHT22;5030;51.532;6.766;2023-01-25T05:53:26;0.60;99.90
9980;DHT22;5030;51.532;6.766;2023-01-25T05:55:52;0.50;99.90
9980;DHT22;5030;51.532;6.766;2023-01-25T05:58:18;0.50;99.90
9980;DHT22;5030;51.532;6.766;2023-01-25T06:00:43;0.50;99.90
9980;DHT22;5030;51.532;6.766;2023-01-25T06:03:09;0.60;99.90
9980;DHT22;5030;51.532;6.766;2023-01-25T06:05:35;0.50;99.90
9980;DHT22;5030;51.532;6.766;2023-01-25T06:08:01;0.20;99.90
9980;DHT22;5030;51.532;6.766;2023-01-25T06:10:26;0.30;99.90
9980;DHT22;5030;51.532;6.766;2023-01-25T06:12:58;0.30;99.90
9980;DHT22;5030;51.532;6.766;2023-01-25T06:15:24;0.30;99.90
9980;DHT22;5030;51.532;6.766;2023-01-25T06:17:54;0.40;99.90
9980;DHT22;5030;51.532;6.766;2023-01-25T06:20:20;0.50;99.90
9980;DHT22;5030;51.532;6.766;2023-01-25T06:22:50;0.50;99.90
9980;DHT22;5030;51.532;6.766;2023-01-25T06:25:17;0.40;99.90
9980;DHT22;5030;51.532;6.766;2023-01-25T06:27:43;0.50;99.90
9980;DHT22;5030;51.532;6.766;2023-01-25T06:30:09;0.50;99.90
9980;DHT22;5030;51.532;6.766;2023-01-25T06:32:35;0.40;99.90
9980;DHT22;5030;51.532;6.766;2023-01-25T06:35:01;0.40;99.90
9980;DHT22;5030;51.532;6.766;2023-01-25T06:37:26;0.30;99.90
9980;DHT22;5030;51.532;6.766;2023-01-25T06:39:52;0.40;99.90
9980;DHT22;5030;51.532;6.766;2023-01-25T06:42:18;0.40;99.90
9980;DHT22;5030;51.532;6.766;2023-01-25T06:44:44;0.40;99.90
9980;DHT22;5030;51.532;6.766;2023-01-25T06:47:10;0.30;99.90
9980;DHT22;5030;51.532;6.766;2023-01-25T06:49:37;0.40;99.90
9980;DHT22;5030;51.532;6.766;2023-01-25T06:52:03;0.40;99.90
9980;DHT22;5030;51.532;6.766;2023-01-25T06:54:28;0.30;99.90
9980;DHT22;5030;51.532;6.766;2023-01-25T06:56:54;0.30;99.90
9980;DHT22;5030;51.532;6.766;2023-01-25T06:59:20;0.30;99.90
9980;DHT22;5030;51.532;6.766;2023-01-25T07:01:45;0.30;99.90
9980;DHT22;5030;51.532;6.766;2023-01-25T07:04:11;0.10;99.90
9980;DHT22;5030;51.532;6.766;2023-01-25T07:06:37;0.10;99.90
9980;DHT22;5030;51.532;6.766;2023-01-25T07:09:08;0.00;99.90
9980;DHT22;5030;51.532;6.766;2023-01-25T07:11:34;0.00;99.90
9980;DHT22;5030;51.532;6.766;2023-01-25T07:14:00;0.00;99.90
9980;DHT22;5030;51.532;6.766;2023-01-25T07:16:26;0.00;99.90
9980;DHT22;5030;51.532;6.766;2023-01-25T07:18:52;-0.10;99.90
9980;DHT22;5030;51.532;6.766;2023-01-25T07:21:20;0.00;99.90
9980;DHT22;5030;51.532;6.766;2023-01-25T07:23:50;0.00;99.90
9980;DHT22;5030;51.532;6.766;2023-01-25T07:26:19;0.00;99.90
9980;DHT22;5030;51.532;6.766;2023-01-25T07:28:46;0.00;99.90
9980;DHT22;5030;51.532;6.766;2023-01-25T07:31:13;0.00;99.90
9980;DHT22;5030;51.532;6.766;2023-01-25T07:33:39;0.00;99.90
9980;DHT22;5030;51.532;6.766;2023-01-25T07:36:07;0.00;99.90
9980;DHT22;5030;51.532;6.766;2023-01-25T07:38:33;0.10;99.90
9980;DHT22;5030;51.532;6.766;2023-01-25T07:40:59;0.00;99.90
9980;DHT22;5030;51.532;6.766;2023-01-25T07:43:25;0.00;99.90
9980;DHT22;5030;51.532;6.766;2023-01-25T07:45:51;-0.10;99.90
9980;DHT22;5030;51.532;6.766;2023-01-25T07:48:19;-0.10;99.90
9980;DHT22;5030;51.532;6.766;2023-01-25T07:50:45;-0.10;99.90
9980;DHT22;5030;51.532;6.766;2023-01-25T07:53:14;-0.10;99.90
9980;DHT22;5030;51.532;6.766;2023-01-25T07:55:40;-0.10;99.90
9980;DHT22;5030;51.532;6.766;2023-01-25T07:58:06;-0.10;99.90
9980;DHT22;5030;51.532;6.766;2023-01-25T08:00:32;0.00;99.90
9980;DHT22;5030;51.532;6.766;2023-01-25T08:02:58;0.10;99.90
9980;DHT22;5030;51.532;6.766;2023-01-25T08:05:24;0.30;99.90
9980;DHT22;5030;51.532;6.766;2023-01-25T08:07:50;0.20;99.90
9980;DHT22;5030;51.532;6.766;2023-01-25T08:10:15;0.10;99.90
9980;DHT22;5030;51.532;6.766;2023-01-25T08:12:44;0.00;99.90
9980;DHT22;5030;51.532;6.766;2023-01-25T08:15:11;0.10;99.90
9980;DHT22;5030;51.532;6.766;2023-01-25T08:17:37;0.00;99.90
9980;DHT22;5030;51.532;6.766;2023-01-25T08:20:03;0.10;99.90
9980;DHT22;5030;51.532;6.766;2023-01-25T08:22:29;0.20;99.90
9980;DHT22;5030;51.532;6.766;2023-01-25T08:24:54;0.30;99.90
9980;DHT22;5030;51.532;6.766;2023-01-25T08:27:21;0.20;99.90
9980;DHT22;5030;51.532;6.766;2023-01-25T08:29:46;0.10;99.90
9980;DHT22;5030;51.532;6.766;2023-01-25T08:32:15;0.10;99.90
9980;DHT22;5030;51.532;6.766;2023-01-25T08:34:40;0.20;99.90
9980;DHT22;5030;51.532;6.766;2023-01-25T08:37:06;0.20;99.90
9980;DHT22;5030;51.532;6.766;2023-01-25T08:39:32;0.30;99.90
9980;DHT22;5030;51.532;6.766;2023-01-25T08:41:57;0.40;99.90
9980;DHT22;5030;51.532;6.766;2023-01-25T08:44:23;0.60;99.90
9980;DHT22;5030;51.532;6.766;2023-01-25T08:46:50;0.70;99.90
9980;DHT22;5030;51.532;6.766;2023-01-25T08:49:16;0.70;99.90
9980;DHT22;5030;51.532;6.766;2023-01-25T08:51:42;0.40;99.90
9980;DHT22;5030;51.532;6.766;2023-01-25T08:54:10;0.40;99.90
9980;DHT22;5030;51.532;6.766;2023-01-25T08:56:40;0.30;99.90
9980;DHT22;5030;51.532;6.766;2023-01-25T08:59:07;0.20;99.90
9980;DHT22;5030;51.532;6.766;2023-01-25T09:01:35;0.40;99.90
9980;DHT22;5030;51.532;6.766;2023-01-25T09:04:00;0.50;99.90
9980;DHT22;5030;51.532;6.766;2023-01-25T09:06:26;0.40;99.90
9980;DHT22;5030;51.532;6.766;2023-01-25T09:08:52;0.30;99.90
9980;DHT22;5030;51.532;6.766;2023-01-25T09:11:19;0.20;99.90
9980;DHT22;5030;51.532;6.766;2023-01-25T09:13:46;0.30;99.90
9980;DHT22;5030;51.532;6.766;2023-01-25T09:16:16;0.40;99.90
9980;DHT22;5030;51.532;6.766;2023-01-25T09:18:43;0.30;99.90
9980;DHT22;5030;51.532;6.766;2023-01-25T09:21:12;0.40;99.90
9980;DHT22;5030;51.532;6.766;2023-01-25T09:23:37;0.50;99.90
9980;DHT22;5030;51.532;6.766;2023-01-25T09:26:03;0.70;99.90
9980;DHT22;5030;51.532;6.766;2023-01-25T09:28:30;0.70;99.90
9980;DHT22;5030;51.532;6.766;2023-01-25T09:31:01;0.50;99.90
9980;DHT22;5030;51.532;6.766;2023-01-25T09:33:31;0.60;99.90
9980;DHT22;5030;51.532;6.766;2023-01-25T09:35:59;0.70;99.90
9980;DHT22;5030;51.532;6.766;2023-01-25T09:38:25;0.70;99.90
9980;DHT22;5030;51.532;6.766;2023-01-25T09:46:42;0.50;99.90
9980;DHT22;5030;51.532;6.766;2023-01-25T09:49:30;0.60;99.90
9980;DHT22;5030;51.532;6.766;2023-01-25T09:54:44;0.50;99.90
9980;DHT22;5030;51.532;6.766;2023-01-25T09:57:35;0.50;99.90
9980;DHT22;5030;51.532;6.766;2023-01-25T10:00:26;0.50;99.90
9980;DHT22;5030;51.532;6.766;2023-01-25T10:03:17;0.20;99.90
9980;DHT22;5030;51.532;6.766;2023-01-25T10:05:46;0.30;99.90
9980;DHT22;5030;51.532;6.766;2023-01-25T10:08:16;0.60;99.90
9980;DHT22;5030;51.532;6.766;2023-01-25T10:10:45;0.50;99.90
9980;DHT22;5030;51.532;6.766;2023-01-25T10:13:14;0.60;99.90
9980;DHT22;5030;51.532;6.766;2023-01-25T10:16:02;0.50;99.90
9980;DHT22;5030;51.532;6.766;2023-01-25T10:21:31;0.50;99.90
9980;DHT22;5030;51.532;6.766;2023-01-25T10:26:49;0.70;99.90
9980;DHT22;5030;51.532;6.766;2023-01-25T10:29:22;0.50;99.90
9980;DHT22;5030;51.532;6.766;2023-01-25T10:31:54;0.50;99.90
9980;DHT22;5030;51.532;6.766;2023-01-25T10:34:31;0.40;99.90
9980;DHT22;5030;51.532;6.766;2023-01-25T10:37:02;0.50;99.90
9980;DHT22;5030;51.532;6.766;2023-01-25T10:39:28;0.40;99.90
9980;DHT22;5030;51.532;6.766;2023-01-25T10:41:59;0.50;99.90
9980;DHT22;5030;51.532;6.766;2023-01-25T10:44:26;0.60;99.90
9980;DHT22;5030;51.532;6.766;2023-01-25T10:47:13;0.50;99.90
9980;DHT22;5030;51.532;6.766;2023-01-25T10:52:22;0.50;99.90
9980;DHT22;5030;51.532;6.766;2023-01-25T10:55:14;0.60;99.90
9980;DHT22;5030;51.532;6.766;2023-01-25T10:57:48;0.40;99.90
9980;DHT22;5030;51.532;6.766;2023-01-25T11:00:35;0.40;99.90
9980;DHT22;5030;51.532;6.766;2023-01-25T11:03:02;0.50;99.90
9980;DHT22;5030;51.532;6.766;2023-01-25T11:05:37;0.40;99.90
9980;DHT22;5030;51.532;6.766;2023-01-25T11:08:24;0.40;99.90
9980;DHT22;5030;51.532;6.766;2023-01-25T11:10:50;0.40;99.90
9980;DHT22;5030;51.532;6.766;2023-01-25T11:13:18;0.40;99.90
9980;DHT22;5030;51.532;6.766;2023-01-25T11:16:36;0.60;99.90
9980;DHT22;5030;51.532;6.766;2023-01-25T11:18:35;0.50;99.90
9980;DHT22;5030;51.532;6.766;2023-01-25T11:21:15;0.50;99.90
9980;DHT22;5030;51.532;6.766;2023-01-25T11:26:29;0.60;99.90
9980;DHT22;5030;51.532;6.766;2023-01-25T11:31:36;0.40;99.90
9980;DHT22;5030;51.532;6.766;2023-01-25T11:34:04;0.40;99.90
9980;DHT22;5030;51.532;6.766;2023-01-25T11:44:55;0.50;99.90
9980;DHT22;5030;51.532;6.766;2023-01-25T11:50:32;0.30;99.90
9980;DHT22;5030;51.532;6.766;2023-01-25T12:01:36;0.50;99.90
9980;DHT22;5030;51.532;6.766;2023-01-25T12:04:31;0.40;99.90
9980;DHT22;5030;51.532;6.766;2023-01-25T12:17:49;0.50;99.90
9980;DHT22;5030;51.532;6.766;2023-01-25T12:23:35;0.60;99.90
9980;DHT22;5030;51.532;6.766;2023-01-25T12:28:32;0.50;99.90
9980;DHT22;5030;51.532;6.766;2023-01-25T12:36:30;0.60;99.90
9980;DHT22;5030;51.532;6.766;2023-01-25T12:39:03;0.50;99.90
9980;DHT22;5030;51.532;6.766;2023-01-25T12:41:54;0.60;99.90
9980;DHT22;5030;51.532;6.766;2023-01-25T12:44:35;0.40;99.90
9980;DHT22;5030;51.532;6.766;2023-01-25T12:50:46;0.10;99.90
9980;DHT22;5030;51.532;6.766;2023-01-25T12:55:42;0.30;99.90
9980;DHT22;5030;51.532;6.766;2023-01-25T13:01:50;0.20;99.90
9980;DHT22;5030;51.532;6.766;2023-01-25T13:07:02;0.20;99.90
9980;DHT22;5030;51.532;6.766;2023-01-25T13:09:43;0.10;99.90
9980;DHT22;5030;51.532;6.766;2023-01-25T13:12:12;0.10;99.90
9980;DHT22;5030;51.532;6.766;2023-01-25T13:14:39;0.20;99.90
9980;DHT22;5030;51.532;6.766;2023-01-25T13:19:52;0.20;99.90
9980;DHT22;5030;51.532;6.766;2023-01-25T13:27:40;0.20;99.90
9980;DHT22;5030;51.532;6.766;2023-01-25T13:32:53;0.20;99.90
9980;DHT22;5030;51.532;6.766;2023-01-25T13:35:36;0.30;99.90
9980;DHT22;5030;51.532;6.766;2023-01-25T13:40:36;0.20;99.90
9980;DHT22;5030;51.532;6.766;2023-01-25T13:43:17;0.00;99.90
9980;DHT22;5030;51.532;6.766;2023-01-25T13:45:44;0.10;99.90
9980;DHT22;5030;51.532;6.766;2023-01-25T13:48:14;0.00;99.90
9980;DHT22;5030;51.532;6.766;2023-01-25T13:50:50;-0.10;99.90
9980;DHT22;5030;51.532;6.766;2023-01-25T13:53:20;0.00;99.90
9980;DHT22;5030;51.532;6.766;2023-01-25T13:55:49;0.10;99.90
9980;DHT22;5030;51.532;6.766;2023-01-25T14:01:02;0.10;99.90
9980;DHT22;5030;51.532;6.766;2023-01-25T14:06:21;0.00;99.90
9980;DHT22;5030;51.532;6.766;2023-01-25T14:08:49;-0.10;99.90
9980;DHT22;5030;51.532;6.766;2023-01-25T14:11:27;-0.10;99.90
9980;DHT22;5030;51.532;6.766;2023-01-25T14:16:33;0.10;99.90
9980;DHT22;5030;51.532;6.766;2023-01-25T14:19:29;0.00;99.90
9980;DHT22;5030;51.532;6.766;2023-01-25T14:25:12;-0.10;99.90
9980;DHT22;5030;51.532;6.766;2023-01-25T14:30:48;0.00;99.90
9980;DHT22;5030;51.532;6.766;2023-01-25T14:33:17;0.00;99.90
9980;DHT22;5030;51.532;6.766;2023-01-25T14:35:49;0.00;99.90
9980;DHT22;5030;51.532;6.766;2023-01-25T14:38:37;-0.10;99.90
9980;DHT22;5030;51.532;6.766;2023-01-25T14:41:21;0.10;99.90
9980;DHT22;5030;51.532;6.766;2023-01-25T14:43:52;-0.10;99.90
9980;DHT22;5030;51.532;6.766;2023-01-25T14:48:50;0.00;99.90
9980;DHT22;5030;51.532;6.766;2023-01-25T14:51:29;0.00;99.90
9980;DHT22;5030;51.532;6.766;2023-01-25T14:54:03;0.00;99.90
9980;DHT22;5030;51.532;6.766;2023-01-25T14:58:58;-0.10;99.90
9980;DHT22;5030;51.532;6.766;2023-01-25T15:01:51;-0.20;99.90
9980;DHT22;5030;51.532;6.766;2023-01-25T15:04:17;0.00;99.90
9980;DHT22;5030;51.532;6.766;2023-01-25T15:06:51;0.10;99.90
9980;DHT22;5030;51.532;6.766;2023-01-25T15:09:38;0.00;99.90
9980;DHT22;5030;51.532;6.766;2023-01-25T15:12:27;-0.20;99.90
9980;DHT22;5030;51.532;6.766;2023-01-25T15:14:55;-0.10;99.90
9980;DHT22;5030;51.532;6.766;2023-01-25T15:17:45;0.00;99.90
9980;DHT22;5030;51.532;6.766;2023-01-25T15:25:55;0.00;99.90
9980;DHT22;5030;51.532;6.766;2023-01-25T15:28:23;-0.10;99.90
9980;DHT22;5030;51.532;6.766;2023-01-25T15:30:49;-0.20;99.90
9980;DHT22;5030;51.532;6.766;2023-01-25T15:33:21;-0.30;99.90
9980;DHT22;5030;51.532;6.766;2023-01-25T15:35:48;-0.20;99.90
9980;DHT22;5030;51.532;6.766;2023-01-25T15:38:14;0.00;99.90
9980;DHT22;5030;51.532;6.766;2023-01-25T15:40:42;0.00;99.90
9980;DHT22;5030;51.532;6.766;2023-01-25T15:43:12;-0.10;99.90
9980;DHT22;5030;51.532;6.766;2023-01-25T15:45:39;-0.20;99.90
9980;DHT22;5030;51.532;6.766;2023-01-25T15:48:16;-0.10;99.90
9980;DHT22;5030;51.532;6.766;2023-01-25T15:50:43;-0.10;99.90
9980;DHT22;5030;51.532;6.766;2023-01-25T15:53:14;-0.10;99.90
9980;DHT22;5030;51.532;6.766;2023-01-25T15:55:41;-0.10;99.90
9980;DHT22;5030;51.532;6.766;2023-01-25T15:58:12;-0.20;99.90
9980;DHT22;5030;51.532;6.766;2023-01-25T16:00:42;-0.20;99.90
9980;DHT22;5030;51.532;6.766;2023-01-25T16:03:09;-0.30;99.90
9980;DHT22;5030;51.532;6.766;2023-01-25T16:05:35;-0.20;99.90
9980;DHT22;5030;51.532;6.766;2023-01-25T16:08:01;-0.10;99.90
9980;DHT22;5030;51.532;6.766;2023-01-25T16:10:28;-0.10;99.90
9980;DHT22;5030;51.532;6.766;2023-01-25T16:12:53;-0.20;99.90
9980;DHT22;5030;51.532;6.766;2023-01-25T16:15:19;-0.20;99.90
9980;DHT22;5030;51.532;6.766;2023-01-25T16:17:45;-0.10;99.90
9980;DHT22;5030;51.532;6.766;2023-01-25T16:20:18;-0.30;99.90
9980;DHT22;5030;51.532;6.766;2023-01-25T16:22:45;-0.30;99.90
9980;DHT22;5030;51.532;6.766;2023-01-25T16:25:11;-0.30;99.90
9980;DHT22;5030;51.532;6.766;2023-01-25T16:27:36;-0.20;99.90
9980;DHT22;5030;51.532;6.766;2023-01-25T16:30:06;-0.20;99.90
9980;DHT22;5030;51.532;6.766;2023-01-25T16:32:31;-0.10;99.90
9980;DHT22;5030;51.532;6.766;2023-01-25T16:34:57;-0.10;99.90
9980;DHT22;5030;51.532;6.766;2023-01-25T16:37:23;-0.20;99.90
9980;DHT22;5030;51.532;6.766;2023-01-25T16:39:48;-0.20;99.90
9980;DHT22;5030;51.532;6.766;2023-01-25T16:42:17;-0.20;99.90
9980;DHT22;5030;51.532;6.766;2023-01-25T16:44:42;-0.20;99.90
9980;DHT22;5030;51.532;6.766;2023-01-25T16:47:12;-0.20;99.90
9980;DHT22;5030;51.532;6.766;2023-01-25T16:49:38;-0.30;99.90
9980;DHT22;5030;51.532;6.766;2023-01-25T16:52:04;-0.40;99.90
9980;DHT22;5030;51.532;6.766;2023-01-25T16:54:30;-0.30;99.90
9980;DHT22;5030;51.532;6.766;2023-01-25T16:56:57;-0.40;99.90
9980;DHT22;5030;51.532;6.766;2023-01-25T16:59:23;-0.30;99.90
9980;DHT22;5030;51.532;6.766;2023-01-25T17:01:50;-0.40;99.90
9980;DHT22;5030;51.532;6.766;2023-01-25T17:04:16;-0.30;99.90
9980;DHT22;5030;51.532;6.766;2023-01-25T17:06:44;-0.40;99.90
9980;DHT22;5030;51.532;6.766;2023-01-25T17:09:14;-0.40;99.90
9980;DHT22;5030;51.532;6.766;2023-01-25T17:11:40;-0.50;99.90
9980;DHT22;5030;51.532;6.766;2023-01-25T17:14:07;-0.50;99.90
9980;DHT22;5030;51.532;6.766;2023-01-25T17:16:33;-0.50;99.90
9980;DHT22;5030;51.532;6.766;2023-01-25T17:19:12;-0.50;99.90
9980;DHT22;5030;51.532;6.766;2023-01-25T17:21:38;-0.30;99.90
9980;DHT22;5030;51.532;6.766;2023-01-25T17:24:04;-0.30;99.90
9980;DHT22;5030;51.532;6.766;2023-01-25T17:26:31;-0.30;99.90
9980;DHT22;5030;51.532;6.766;2023-01-25T17:28:58;-0.30;99.90
9980;DHT22;5030;51.532;6.766;2023-01-25T17:31:27;-0.40;99.90
9980;DHT22;5030;51.532;6.766;2023-01-25T17:33:54;-0.30;99.90
9980;DHT22;5030;51.532;6.766;2023-01-25T17:36:20;-0.40;99.90
9980;DHT22;5030;51.532;6.766;2023-01-25T17:38:46;-0.50;99.90
9980;DHT22;5030;51.532;6.766;2023-01-25T17:41:14;-0.50;99.90
9980;DHT22;5030;51.532;6.766;2023-01-25T17:43:40;-0.50;99.90
9980;DHT22;5030;51.532;6.766;2023-01-25T17:46:30;-0.60;99.90
9980;DHT22;5030;51.532;6.766;2023-01-25T17:48:59;-0.60;99.90
9980;DHT22;5030;51.532;6.766;2023-01-25T17:51:26;-0.60;99.90
9980;DHT22;5030;51.532;6.766;2023-01-25T17:53:52;-0.60;99.90
9980;DHT22;5030;51.532;6.766;2023-01-25T17:56:19;-0.70;99.90
9980;DHT22;5030;51.532;6.766;2023-01-25T17:58:45;-0.70;99.90
9980;DHT22;5030;51.532;6.766;2023-01-25T18:01:16;-0.80;99.90
9980;DHT22;5030;51.532;6.766;2023-01-25T18:03:43;-0.80;99.90
9980;DHT22;5030;51.532;6.766;2023-01-25T18:06:10;-0.90;99.90
9980;DHT22;5030;51.532;6.766;2023-01-25T18:08:39;-0.90;99.90
9980;DHT22;5030;51.532;6.766;2023-01-25T18:11:10;-0.80;99.90
9980;DHT22;5030;51.532;6.766;2023-01-25T18:13:42;-0.80;99.90
9980;DHT22;5030;51.532;6.766;2023-01-25T18:16:09;-0.80;99.90
9980;DHT22;5030;51.532;6.766;2023-01-25T18:18:39;-0.80;99.90
9980;DHT22;5030;51.532;6.766;2023-01-25T18:21:10;-0.70;99.90
9980;DHT22;5030;51.532;6.766;2023-01-25T18:23:37;-0.60;99.90
9980;DHT22;5030;51.532;6.766;2023-01-25T18:26:04;-0.80;99.90
9980;DHT22;5030;51.532;6.766;2023-01-25T18:28:31;-0.80;99.90
9980;DHT22;5030;51.532;6.766;2023-01-25T18:30:59;-0.70;99.90
9980;DHT22;5030;51.532;6.766;2023-01-25T18:33:26;-0.90;99.90
9980;DHT22;5030;51.532;6.766;2023-01-25T18:35:51;-1.00;99.90